Sherwood, Michigan
Current Conditions -  °F | °C
As of 12:54 AM on Thursday 23 Oct 2014 (Local Time) from KOEB Reporting Station
Moderate Fog Moderate Fog  
Wind Chill: 33°   Ceiling: 200
Heat Index: 33°   Visibility: 0.25mi
Dew Point: 32°   Wind: 0mph
Humidity: 97%   Direction: NA
Pressure: 30.29"   Gusts: NA
Location:  42°N, 85.24°W
Report Text: KOEB 230454Z AUTO 00000KT 1/4SM FG OVC002 01/00 A3029 RMK AO2 T00050001
Loading
Personal Weather Stations






























Interactive Weather Map
Tropical Storm Tracking
New forecast layout! Learn more

10-Day Weather Forecast

Advertisements
Track Severe Weather on mobile